Time;durP1;ratioP1;P1;durP2;ratioP2;P2;SDS_P1;SDS_P2;PMS_P1;PMS_P2;Temp;Humidity;BMP_temperature;BMP_pressure;BME280_temperature;BME280_humidity;BME280_pressure;Samples;Min_cycle;Max_cycle;Signal;HPM_P1;HPM_P2
2024/01/02 00:00:39;;;;;;;4.95;2.03;;;;;;;7.03;59.53;97966.56;4989428;28;102655;-71
2024/01/02 00:03:09;;;;;;;6.82;1.95;;;;;;;6.99;59.73;97965.25;4989045;28;103810;-71
2024/01/02 00:05:37;;;;;;;4.03;1.55;;;;;;;6.96;59.84;97961.13;4988073;28;103060;-71
2024/01/02 00:08:06;;;;;;;3.63;1.90;;;;;;;6.99;59.72;97960.78;4974520;28;102728;-70
2024/01/02 00:10:34;;;;;;;6.53;1.90;;;;;;;6.94;59.93;97952.53;4990543;28;102728;-71
2024/01/02 00:13:02;;;;;;;5.07;1.77;;;;;;;6.95;59.83;97955.00;4988833;28;103296;-71
2024/01/02 00:15:30;;;;;;;5.50;1.88;;;;;;;6.99;59.50;97944.97;4977126;28;104161;-71
2024/01/02 00:17:58;;;;;;;5.95;1.95;;;;;;;7.00;59.30;97936.09;4988013;28;102705;-71
2024/01/02 00:20:29;;;;;;;4.80;1.75;;;;;;;7.03;59.80;97934.97;4982276;28;104114;-71
2024/01/02 00:22:57;;;;;;;2.90;1.33;;;;;;;7.04;59.49;97931.34;4991550;28;104166;-71
2024/01/02 00:25:25;;;;;;;5.43;1.80;;;;;;;7.04;59.73;97919.00;4988883;28;104242;-71
2024/01/02 00:27:53;;;;;;;2.88;1.70;;;;;;;7.01;59.88;97921.97;4992748;28;102641;-71
2024/01/02 00:30:21;;;;;;;3.80;1.73;;;;;;;7.00;59.65;97924.75;4970548;28;102891;-71
2024/01/02 00:32:49;;;;;;;3.83;1.63;;;;;;;7.01;59.65;97916.69;4969077;28;104187;-71
2024/01/02 00:35:17;;;;;;;3.17;1.58;;;;;;;6.97;59.86;97910.13;4987372;28;103288;-70
2024/01/02 00:37:46;;;;;;;3.10;1.58;;;;;;;6.97;59.94;97916.19;4992194;28;102661;-71
2024/01/02 00:40:14;;;;;;;2.15;1.52;;;;;;;6.99;60.68;97904.69;4975457;28;102757;-71
2024/01/02 00:42:42;;;;;;;4.40;1.88;;;;;;;6.98;60.07;97903.84;4971275;28;104262;-71
2024/01/02 00:45:10;;;;;;;4.53;1.90;;;;;;;7.06;59.59;97895.97;4973272;28;103401;-71
2024/01/02 00:47:38;;;;;;;2.05;1.40;;;;;;;7.02;60.68;97897.28;4967695;28;103338;-71
2024/01/02 00:50:07;;;;;;;4.03;1.70;;;;;;;7.03;59.89;97888.38;4974010;28;102736;-71
2024/01/02 00:52:35;;;;;;;5.75;2.03;;;;;;;7.00;60.74;97872.91;4988145;28;104137;-70
2024/01/02 00:55:06;;;;;;;3.08;1.70;;;;;;;7.03;60.62;97885.75;4974269;28;104100;-71
2024/01/02 00:57:34;;;;;;;2.75;1.60;;;;;;;7.03;60.59;97872.56;4973786;28;102776;-70
2024/01/02 01:00:04;;;;;;;3.65;1.50;;;;;;;7.04;60.13;97874.22;4969927;28;104316;-70
2024/01/02 01:02:32;;;;;;;4.13;1.60;;;;;;;7.05;60.76;97870.63;4987109;28;103305;-71
2024/01/02 01:05:00;;;;;;;3.30;1.50;;;;;;;6.96;60.61;97861.06;4969933;28;103326;-70
2024/01/02 01:07:28;;;;;;;3.70;1.52;;;;;;;7.05;61.09;97864.50;4988483;28;104713;-71
2024/01/02 01:09:55;;;;;;;3.90;1.80;;;;;;;7.03;60.88;97859.41;4974489;28;104293;-71
2024/01/02 01:12:25;;;;;;;3.42;1.50;;;;;;;7.07;60.33;97854.66;4969840;28;104138;-71
2024/01/02 01:14:53;;;;;;;7.53;1.90;;;;;;;7.02;60.32;97849.91;4974700;28;104723;-70
2024/01/02 01:17:21;;;;;;;2.63;1.45;;;;;;;7.05;60.48;97849.56;4984228;28;102816;-70
2024/01/02 01:19:49;;;;;;;2.95;1.40;;;;;;;7.05;60.79;97854.81;4968493;28;102704;-70
2024/01/02 01:22:18;;;;;;;3.38;1.65;;;;;;;6.98;60.21;97843.28;4975513;28;104030;-70
2024/01/02 01:24:46;;;;;;;2.58;1.48;;;;;;;7.03;61.06;97833.09;4987746;28;103016;-70
2024/01/02 01:27:14;;;;;;;5.55;1.60;;;;;;;6.99;60.91;97829.16;4974639;28;102702;-71
2024/01/02 01:29:43;;;;;;;5.78;2.00;;;;;;;6.95;61.09;97822.56;4969041;28;104163;-71
2024/01/02 01:32:12;;;;;;;3.10;1.40;;;;;;;7.01;60.60;97821.06;4975567;28;104167;-71
2024/01/02 01:34:41;;;;;;;2.47;1.48;;;;;;;7.00;60.69;97825.53;4968834;28;104247;-70
2024/01/02 01:37:08;;;;;;;3.00;1.48;;;;;;;7.02;60.72;97818.28;4966871;28;102701;-70
2024/01/02 01:39:36;;;;;;;4.03;1.88;;;;;;;6.91;61.04;97816.81;4972582;28;102695;-73
2024/01/02 01:42:05;;;;;;;4.07;1.80;;;;;;;7.01;60.89;97815.81;4974738;28;104256;-71
2024/01/02 01:44:33;;;;;;;2.38;1.20;;;;;;;7.02;61.11;97818.28;4992000;28;103237;-70
2024/01/02 01:47:04;;;;;;;3.03;1.35;;;;;;;7.04;60.94;97805.78;4981835;28;102754;-70
2024/01/02 01:49:32;;;;;;;2.50;1.50;;;;;;;7.01;61.02;97806.13;4989484;28;103699;-71
2024/01/02 01:52:02;;;;;;;3.05;1.40;;;;;;;7.02;61.30;97801.66;4978019;28;104203;-71
2024/01/02 01:54:30;;;;;;;1.73;1.25;;;;;;;7.03;61.06;97801.50;4973401;28;102743;-71
2024/01/02 01:56:58;;;;;;;2.75;1.42;;;;;;;7.03;60.49;97796.22;4977351;28;103066;-70
2024/01/02 01:59:26;;;;;;;4.80;1.70;;;;;;;7.07;61.19;97794.09;4976711;28;104449;-71
2024/01/02 02:01:54;;;;;;;4.13;1.40;;;;;;;6.99;60.87;97797.56;4978649;28;103925;-71
2024/01/02 02:04:26;;;;;;;2.95;1.42;;;;;;;7.05;60.58;97780.25;4970270;28;104270;-71
2024/01/02 02:06:54;;;;;;;1.88;1.30;;;;;;;7.02;61.15;97776.16;4971617;28;102696;-71
2024/01/02 02:09:21;;;;;;;2.30;1.40;;;;;;;7.03;60.79;97776.97;4995129;28;104378;-69
2024/01/02 02:11:49;;;;;;;1.77;1.30;;;;;;;7.01;61.16;97769.25;4971896;28;104282;-70
2024/01/02 02:14:18;;;;;;;2.33;1.40;;;;;;;7.04;61.44;97771.53;4973533;28;105861;-71
2024/01/02 02:16:46;;;;;;;3.60;1.50;;;;;;;7.01;61.40;97769.25;4988783;28;102668;-71
2024/01/02 02:19:14;;;;;;;5.30;2.53;;;;;;;7.05;60.82;97764.47;4993408;28;102762;-71
2024/01/02 02:21:44;;;;;;;2.35;1.40;;;;;;;7.07;60.65;97755.41;4988598;28;104305;-70
2024/01/02 02:24:15;;;;;;;2.80;1.35;;;;;;;7.05;61.41;97757.41;4976456;28;103229;-71
2024/01/02 02:26:43;;;;;;;2.58;1.40;;;;;;;7.06;61.81;97753.78;4979343;28;102824;-71
2024/01/02 02:29:11;;;;;;;3.50;1.60;;;;;;;7.07;61.91;97751.94;4996046;28;104078;-71
2024/01/02 02:31:39;;;;;;;3.53;1.50;;;;;;;6.97;62.36;97747.69;4979711;28;104291;-70
2024/01/02 02:34:07;;;;;;;1.83;1.40;;;;;;;6.97;62.21;97741.63;4991126;28;103432;-70
2024/01/02 02:36:35;;;;;;;2.05;1.38;;;;;;;7.04;62.33;97732.06;4970760;28;102748;-71
2024/01/02 02:39:03;;;;;;;2.95;1.40;;;;;;;6.99;62.56;97718.56;4973097;28;102931;-71
2024/01/02 02:41:32;;;;;;;2.42;1.25;;;;;;;7.04;62.21;97708.34;4992155;28;104386;-71
2024/01/02 02:44:00;;;;;;;2.63;1.30;;;;;;;7.00;63.01;97693.91;4995571;28;104323;-70
2024/01/02 02:46:28;;;;;;;2.83;1.30;;;;;;;7.03;63.02;97698.00;4974985;28;102768;-70
2024/01/02 02:48:58;;;;;;;3.38;1.33;;;;;;;7.02;62.99;97694.56;4976845;28;104191;-71
2024/01/02 02:51:26;;;;;;;2.85;1.30;;;;;;;7.01;63.34;97687.63;4988030;28;104063;-71
2024/01/02 02:53:54;;;;;;;3.47;1.40;;;;;;;6.98;64.05;97674.81;4978257;28;103238;-71
2024/01/02 02:56:22;;;;;;;1.90;0.93;;;;;;;6.97;63.83;97678.44;4997836;28;102704;-71
2024/01/02 02:58:51;;;;;;;2.40;1.20;;;;;;;6.96;64.21;97672.34;4991163;28;104088;-71
2024/01/02 03:01:23;;;;;;;3.63;1.40;;;;;;;6.94;64.14;97670.88;4971482;28;103536;-70
2024/01/02 03:03:51;;;;;;;2.10;1.27;;;;;;;6.91;64.49;97668.59;4993695;28;103294;-67
2024/01/02 03:06:19;;;;;;;2.92;1.55;;;;;;;7.01;64.15;97663.94;4994792;28;106382;-70
2024/01/02 03:08:47;;;;;;;4.50;1.52;;;;;;;6.90;64.31;97651.16;4986674;28;103020;-70
2024/01/02 03:11:15;;;;;;;3.97;1.40;;;;;;;6.94;64.22;97641.91;4984735;28;103731;-70
2024/01/02 03:13:43;;;;;;;3.42;1.60;;;;;;;6.90;64.77;97643.25;4993929;28;103216;-70
2024/01/02 03:16:12;;;;;;;4.20;1.55;;;;;;;6.93;64.03;97630.56;4976851;28;102668;-70
2024/01/02 03:18:40;;;;;;;3.10;1.30;;;;;;;6.90;65.04;97624.81;4994720;28;103970;-69
2024/01/02 03:21:10;;;;;;;1.55;1.17;;;;;;;6.87;64.93;97619.91;4996174;28;103325;-70
2024/01/02 03:23:38;;;;;;;3.00;1.33;;;;;;;6.89;66.13;97618.75;4997218;28;104497;-70
2024/01/02 03:26:06;;;;;;;3.08;1.40;;;;;;;6.85;65.58;97612.19;4970669;28;102696;-70
2024/01/02 03:28:34;;;;;;;3.05;1.60;;;;;;;6.80;66.20;97604.78;4987620;28;104005;-71
2024/01/02 03:31:03;;;;;;;1.30;1.08;;;;;;;6.83;66.52;97597.56;4989779;28;103432;-70
2024/01/02 03:33:33;;;;;;;3.10;1.30;;;;;;;6.79;66.77;97592.63;4989659;28;103292;-71
2024/01/02 03:36:01;;;;;;;2.80;1.30;;;;;;;6.74;66.75;97588.88;4991429;28;103307;-70
2024/01/02 03:38:28;;;;;;;3.10;1.50;;;;;;;6.71;67.28;97573.44;4973196;28;104033;-70
2024/01/02 03:40:57;;;;;;;2.85;1.30;;;;;;;6.68;67.56;97571.97;4984634;28;103231;-70
2024/01/02 03:43:24;;;;;;;2.72;1.27;;;;;;;6.73;67.62;97566.97;4997767;28;103188;-71
2024/01/02 03:45:52;;;;;;;2.53;1.35;;;;;;;6.68;68.32;97557.97;4967716;28;102787;-70
2024/01/02 03:48:23;;;;;;;2.25;1.17;;;;;;;6.64;68.43;97552.22;4987137;28;104261;-70
2024/01/02 03:50:53;;;;;;;2.15;1.20;;;;;;;6.61;68.87;97540.22;4987671;28;103582;-71
2024/01/02 03:53:21;;;;;;;3.00;1.25;;;;;;;6.55;69.38;97538.31;4972645;28;104235;-70
2024/01/02 03:55:49;;;;;;;1.58;1.10;;;;;;;6.62;68.99;97533.19;4989869;28;102553;-70
2024/01/02 03:58:17;;;;;;;2.28;1.10;;;;;;;6.63;69.88;97526.94;4985124;28;102936;-70
2024/01/02 04:00:45;;;;;;;1.30;1.00;;;;;;;6.56;69.34;97518.06;4975891;28;104063;-70
2024/01/02 04:03:13;;;;;;;1.65;1.17;;;;;;;6.51;70.29;97510.72;4989996;28;103238;-70
2024/01/02 04:05:40;;;;;;;1.02;0.90;;;;;;;6.47;70.75;97507.59;4993523;28;102697;-70
2024/01/02 04:08:11;;;;;;;2.30;1.17;;;;;;;6.57;70.61;97509.19;4992565;28;103551;-70
2024/01/02 04:10:40;;;;;;;1.45;0.95;;;;;;;6.46;71.43;97499.88;4972358;28;104383;-71
2024/01/02 04:13:09;;;;;;;1.08;0.98;;;;;;;6.55;70.87;97501.47;4972755;28;104263;-70
2024/01/02 04:15:37;;;;;;;1.27;0.93;;;;;;;6.47;71.55;97499.69;4970404;28;102708;-70
2024/01/02 04:18:05;;;;;;;2.45;1.33;;;;;;;6.56;71.05;97497.81;4988446;28;102736;-70
2024/01/02 04:20:34;;;;;;;1.95;1.20;;;;;;;6.56;71.86;97491.75;4977917;28;104373;-71
2024/01/02 04:23:02;;;;;;;2.83;1.40;;;;;;;6.49;72.13;97490.81;4994762;28;103195;-70
2024/01/02 04:25:34;;;;;;;1.15;0.90;;;;;;;6.54;72.00;97484.03;4993970;28;103093;-70
2024/01/02 04:28:01;;;;;;;1.15;1.00;;;;;;;6.47;72.57;97486.53;4993234;28;103706;-70
2024/01/02 04:30:30;;;;;;;4.47;1.17;;;;;;;6.40;73.01;97482.94;4991532;28;104111;-70
2024/01/02 04:32:58;;;;;;;2.85;1.38;;;;;;;6.39;73.35;97475.25;4973380;28;103652;-70
2024/01/02 04:35:26;;;;;;;3.25;1.23;;;;;;;6.24;73.58;97465.44;4992010;28;102710;-70
2024/01/02 04:37:54;;;;;;;0.82;0.82;;;;;;;6.40;73.26;97454.03;4992497;28;103877;-70
2024/01/02 04:40:22;;;;;;;0.73;0.73;;;;;;;6.39;73.41;97443.69;4990315;28;104004;-70
2024/01/02 04:42:51;;;;;;;1.33;1.15;;;;;;;6.32;73.61;97443.56;4991282;28;102712;-70
2024/01/02 04:45:19;;;;;;;1.20;1.10;;;;;;;6.34;73.56;97444.22;4974747;28;102670;-70
2024/01/02 04:47:46;;;;;;;1.85;1.02;;;;;;;6.33;74.22;97433.84;4993467;28;105924;-70
2024/01/02 04:50:15;;;;;;;2.38;1.10;;;;;;;6.35;74.05;97426.59;4970283;28;104033;-70
2024/01/02 04:52:43;;;;;;;0.77;0.77;;;;;;;6.22;74.39;97432.41;4991434;28;103304;-69
2024/01/02 04:55:11;;;;;;;1.55;1.10;;;;;;;6.33;74.30;97426.78;4990494;28;102759;-70
2024/01/02 04:57:38;;;;;;;0.98;0.90;;;;;;;6.26;74.34;97429.28;4991317;28;104290;-70
2024/01/02 05:00:09;;;;;;;0.93;0.90;;;;;;;6.20;74.94;97421.28;4991827;28;104508;-70
2024/01/02 05:02:37;;;;;;;1.73;1.10;;;;;;;6.28;74.50;97410.69;4989127;28;103240;-70
2024/01/02 05:05:06;;;;;;;1.73;0.93;;;;;;;6.19;74.54;97407.28;4987415;28;103928;-70
2024/01/02 05:07:34;;;;;;;1.10;1.00;;;;;;;6.23;75.11;97392.81;4990535;28;102720;-70
2024/01/02 05:10:02;;;;;;;2.10;1.17;;;;;;;6.22;75.05;97395.59;4973031;28;104409;-70
2024/01/02 05:12:29;;;;;;;2.17;0.93;;;;;;;6.21;75.15;97388.72;4993212;28;103311;-70
2024/01/02 05:14:57;;;;;;;3.40;1.15;;;;;;;6.20;75.05;97381.84;4993352;28;102717;-70
2024/01/02 05:17:26;;;;;;;1.42;0.85;;;;;;;6.31;74.63;97381.41;4975304;28;104749;-70
2024/01/02 05:19:55;;;;;;;1.60;1.05;;;;;;;6.25;74.68;97369.78;4990167;28;103258;-70
2024/01/02 05:22:22;;;;;;;1.25;1.05;;;;;;;6.32;74.87;97375.19;4989927;28;102692;-70
2024/01/02 05:24:50;;;;;;;1.50;1.02;;;;;;;6.26;74.64;97371.44;4994638;28;102731;-70
2024/01/02 05:27:21;;;;;;;1.23;0.98;;;;;;;6.12;74.87;97359.03;4998855;28;104150;-70
2024/01/02 05:29:49;;;;;;;3.28;1.25;;;;;;;6.27;74.96;97372.25;4996020;28;104162;-69
2024/01/02 05:32:20;;;;;;;3.05;1.20;;;;;;;6.23;74.86;97360.44;4990652;28;103213;-69
2024/01/02 05:34:49;;;;;;;2.85;1.48;;;;;;;6.18;75.15;97365.41;4977951;28;102742;-69
2024/01/02 05:37:18;;;;;;;2.50;1.30;;;;;;;6.21;75.29;97368.50;4978603;28;103919;-69
2024/01/02 05:39:46;;;;;;;2.55;1.17;;;;;;;6.25;75.09;97364.53;4978398;28;104298;-69
2024/01/02 05:42:14;;;;;;;0.93;0.93;;;;;;;6.13;75.90;97360.66;4978138;28;103394;-71
2024/01/02 05:44:42;;;;;;;1.77;1.08;;;;;;;6.23;75.44;97368.34;4998425;28;102651;-69
2024/01/02 05:47:10;;;;;;;1.55;1.08;;;;;;;6.21;75.05;97351.91;4997660;28;103719;-70
2024/01/02 05:49:38;;;;;;;1.85;1.35;;;;;;;6.26;75.35;97329.38;4994589;28;102950;-71
2024/01/02 05:52:07;;;;;;;2.65;1.13;;;;;;;6.24;75.35;97348.94;4973988;28;104210;-69
2024/01/02 05:54:35;;;;;;;1.77;1.20;;;;;;;6.26;75.77;97328.53;4978141;28;103827;-69
2024/01/02 05:57:03;;;;;;;3.17;1.83;;;;;;;6.20;75.50;97322.16;4995500;28;102780;-69
2024/01/02 05:59:31;;;;;;;2.00;1.20;;;;;;;6.24;75.90;97320.03;4996603;28;104158;-69
2024/01/02 06:01:59;;;;;;;6.55;1.67;;;;;;;6.28;75.88;97313.41;4976036;28;104244;-70
2024/01/02 06:04:27;;;;;;;1.17;1.00;;;;;;;6.24;75.55;97325.28;4995200;28;102678;-71
2024/01/02 06:06:55;;;;;;;1.75;1.10;;;;;;;6.23;75.60;97307.84;4996033;28;104454;-70
2024/01/02 06:09:25;;;;;;;2.38;1.33;;;;;;;6.25;75.26;97319.00;4993273;28;104295;-70
2024/01/02 06:11:53;;;;;;;1.40;1.25;;;;;;;6.29;75.74;97313.22;4993541;28;104271;-70
2024/01/02 06:14:24;;;;;;;2.33;0.95;;;;;;;6.23;75.51;97306.03;4995088;28;102656;-69
2024/01/02 06:16:51;;;;;;;2.08;1.10;;;;;;;6.35;75.23;97314.34;4981532;28;102727;-70
2024/01/02 06:19:21;;;;;;;1.80;1.05;;;;;;;6.32;76.17;97306.00;4996494;28;105043;-70
2024/01/02 06:21:50;;;;;;;1.42;1.08;;;;;;;6.34;75.72;97296.94;4978547;28;104528;-70
2024/01/02 06:24:17;;;;;;;1.20;1.10;;;;;;;6.30;76.39;97293.00;4997493;28;102722;-70
2024/01/02 06:26:47;;;;;;;2.25;1.20;;;;;;;6.40;76.05;97298.03;4979928;28;102808;-70
2024/01/02 06:29:14;;;;;;;2.15;1.23;;;;;;;6.41;75.50;97303.13;4995068;28;103360;-70
2024/01/02 06:31:42;;;;;;;1.67;1.13;;;;;;;6.41;75.43;97284.72;4976758;28;104797;-70
2024/01/02 06:34:10;;;;;;;1.88;1.30;;;;;;;6.38;75.50;97289.50;4998629;28;102732;-71
2024/01/02 06:36:39;;;;;;;3.10;1.80;;;;;;;6.39;75.82;97270.94;4993791;28;103960;-69
2024/01/02 06:39:07;;;;;;;2.00;1.30;;;;;;;6.31;76.25;97265.72;4991894;28;104091;-70
2024/01/02 06:41:35;;;;;;;1.65;1.20;;;;;;;6.40;75.79;97266.50;4993162;28;103089;-70
2024/01/02 06:44:04;;;;;;;1.00;0.90;;;;;;;6.33;76.19;97269.00;4978184;28;102940;-69
2024/01/02 06:46:32;;;;;;;1.20;1.00;;;;;;;6.39;75.85;97270.94;4996867;28;104226;-70
2024/01/02 06:49:00;;;;;;;1.48;1.10;;;;;;;6.44;76.25;97257.25;4992914;28;102640;-70
2024/01/02 06:51:29;;;;;;;2.13;1.30;;;;;;;6.42;75.80;97260.06;4993410;28;102989;-70
2024/01/02 06:53:57;;;;;;;1.13;1.02;;;;;;;6.45;75.99;97257.06;4976734;28;102665;-70
2024/01/02 06:56:25;;;;;;;1.92;1.20;;;;;;;6.57;75.34;97261.91;4993331;28;104025;-70
2024/01/02 06:58:53;;;;;;;1.48;1.35;;;;;;;6.53;75.03;97264.06;4971738;28;104236;-70
2024/01/02 07:01:27;;;;;;;4.45;1.30;;;;;;;6.57;75.19;97241.66;4995793;28;104232;-70
2024/01/02 07:03:54;;;;;;;1.30;1.00;;;;;;;6.61;75.54;97242.13;4977293;28;102752;-70
2024/01/02 07:06:23;;;;;;;2.92;1.48;;;;;;;6.53;75.98;97245.66;4986605;28;102696;-70
2024/01/02 07:08:54;;;;;;;1.17;1.05;;;;;;;6.55;75.69;97242.84;4971652;28;104033;-71
2024/01/02 07:11:23;;;;;;;1.65;1.10;;;;;;;6.62;76.34;97251.66;4994850;28;103318;-72
2024/01/02 07:13:53;;;;;;;1.35;1.10;;;;;;;6.67;76.44;97246.69;4977442;28;102739;-73
2024/01/02 07:16:22;;;;;;;2.33;1.35;;;;;;;6.64;76.29;97247.03;4986623;28;104048;-73
2024/01/02 07:18:51;;;;;;;1.70;1.30;;;;;;;6.69;76.18;97244.69;4971525;28;103005;-72
2024/01/02 07:21:19;;;;;;;1.38;1.23;;;;;;;6.67;76.30;97246.69;4994071;28;103277;-73
2024/01/02 07:23:47;;;;;;;1.00;1.00;;;;;;;6.71;76.39;97247.97;5001806;28;102622;-72
2024/01/02 07:26:15;;;;;;;1.33;1.05;;;;;;;6.78;75.50;97233.06;4965592;28;104284;-72
2024/01/02 07:28:43;;;;;;;2.25;1.20;;;;;;;6.72;75.32;97239.09;4996346;28;103971;-73
2024/01/02 07:31:11;;;;;;;1.50;1.10;;;;;;;6.78;75.85;97222.56;4994740;28;103325;-72
2024/01/02 07:33:40;;;;;;;2.33;1.20;;;;;;;6.79;75.34;97234.72;4998933;28;102542;-74
2024/01/02 07:36:09;;;;;;;1.08;1.00;;;;;;;6.94;75.45;97232.13;4990344;28;102743;-71
2024/01/02 07:38:37;;;;;;;1.45;1.05;;;;;;;6.89;75.42;97229.22;5000515;28;103342;-73
2024/01/02 07:41:05;;;;;;;2.67;1.45;;;;;;;6.91;75.44;97248.25;5002783;28;103190;-72
2024/01/02 07:43:33;;;;;;;1.13;1.00;;;;;;;7.00;75.40;97241.09;4993712;28;102560;-72
2024/01/02 07:46:01;;;;;;;0.68;0.68;;;;;;;7.07;74.95;97251.72;4992070;28;102609;-72
2024/01/02 07:48:29;;;;;;;0.93;0.85;;;;;;;7.02;74.95;97246.16;4986945;28;103932;-72
2024/01/02 07:50:57;;;;;;;1.25;1.15;;;;;;;7.09;75.45;97250.53;4990783;28;103208;-72
2024/01/02 07:53:26;;;;;;;0.98;0.88;;;;;;;7.12;75.25;97249.34;4973846;28;102937;-71
2024/01/02 07:55:54;;;;;;;0.93;0.93;;;;;;;7.14;75.76;97242.91;4992899;28;103784;-72
2024/01/02 07:58:22;;;;;;;1.55;1.02;;;;;;;7.14;74.43;97252.63;5001501;28;103322;-71
2024/01/02 08:00:50;;;;;;;0.80;0.80;;;;;;;7.23;75.22;97235.75;4980153;28;103363;-71
2024/01/02 08:03:18;;;;;;;0.68;0.68;;;;;;;7.27;75.11;97257.25;4991084;28;102553;-71
2024/01/02 08:05:46;;;;;;;0.80;0.70;;;;;;;7.29;75.32;97250.00;4993963;28;102610;-71
2024/01/02 08:08:14;;;;;;;1.00;0.90;;;;;;;7.31;75.14;97248.00;4995633;28;104092;-71
2024/01/02 08:10:44;;;;;;;2.10;0.95;;;;;;;7.37;74.52;97247.25;4994033;28;103298;-71
2024/01/02 08:13:11;;;;;;;0.88;0.80;;;;;;;7.33;74.41;97219.66;4991488;28;102831;-72
2024/01/02 08:15:40;;;;;;;1.73;0.90;;;;;;;7.46;74.76;97254.03;4992740;28;104317;-71
2024/01/02 08:18:09;;;;;;;0.82;0.60;;;;;;;7.47;74.62;97246.97;4997090;28;103975;-71
2024/01/02 08:20:38;;;;;;;0.98;0.75;;;;;;;7.52;75.02;97228.81;4974829;28;103188;-71
2024/01/02 08:23:07;;;;;;;0.80;0.80;;;;;;;7.55;74.91;97248.69;4985722;28;102577;-71
2024/01/02 08:25:39;;;;;;;1.70;1.00;;;;;;;7.57;74.63;97236.97;4997504;28;103757;-71
2024/01/02 08:28:08;;;;;;;1.27;0.90;;;;;;;7.59;74.76;97244.69;4971945;28;105024;-71
2024/01/02 08:30:36;;;;;;;0.85;0.80;;;;;;;7.62;74.60;97249.56;4975616;28;103284;-71
2024/01/02 08:33:04;;;;;;;0.73;0.65;;;;;;;7.65;74.45;97251.88;4990457;28;102919;-71
2024/01/02 08:35:34;;;;;;;0.70;0.70;;;;;;;7.76;74.15;97261.91;4993564;28;103630;-72
2024/01/02 08:38:02;;;;;;;0.50;0.50;;;;;;;7.74;73.50;97253.38;4980797;28;103964;-71
2024/01/02 08:40:32;;;;;;;1.75;0.80;;;;;;;7.78;73.75;97249.38;4972681;28;103979;-71
2024/01/02 08:43:00;;;;;;;0.90;0.90;;;;;;;7.83;74.19;97255.91;4992848;28;102855;-71
2024/01/02 08:45:30;;;;;;;0.57;0.57;;;;;;;7.88;73.46;97253.53;4987510;28;104086;-71
2024/01/02 08:47:57;;;;;;;1.52;0.88;;;;;;;7.92;73.52;97249.50;4989761;28;103579;-71
2024/01/02 08:50:27;;;;;;;0.85;0.82;;;;;;;7.93;73.48;97251.16;4991401;28;103211;-72
2024/01/02 08:52:56;;;;;;;0.77;0.73;;;;;;;7.99;73.09;97247.78;4975678;28;102890;-73
2024/01/02 08:55:23;;;;;;;1.88;0.82;;;;;;;8.01;73.40;97239.66;4995997;28;104167;-72
2024/01/02 08:57:53;;;;;;;0.60;0.60;;;;;;;8.03;73.27;97240.28;4997707;28;104282;-70
2024/01/02 09:00:21;;;;;;;0.73;0.73;;;;;;;8.07;72.86;97250.28;4996930;28;103129;-70
2024/01/02 09:02:50;;;;;;;0.98;0.80;;;;;;;8.09;73.02;97264.06;4994515;28;102704;-70
2024/01/02 09:05:18;;;;;;;0.57;0.57;;;;;;;8.16;72.61;97255.41;4988946;28;104060;-70
2024/01/02 09:07:46;;;;;;;0.63;0.63;;;;;;;8.13;72.77;97257.44;4985754;28;103151;-72
2024/01/02 09:10:15;;;;;;;1.33;1.00;;;;;;;8.12;72.52;97255.81;4995045;28;103171;-73
2024/01/02 09:12:42;;;;;;;1.55;0.85;;;;;;;8.17;72.50;97272.88;4989018;28;103698;-72
2024/01/02 09:15:10;;;;;;;0.95;0.65;;;;;;;8.18;72.14;97270.06;4973783;28;104599;-71
2024/01/02 09:17:38;;;;;;;0.88;0.60;;;;;;;8.20;71.91;97277.78;4992282;28;102736;-70
2024/01/02 09:20:11;;;;;;;1.27;1.00;;;;;;;8.26;71.93;97271.75;4996574;28;104177;-70
2024/01/02 09:22:39;;;;;;;0.60;0.60;;;;;;;8.30;71.64;97278.28;4993364;28;102603;-71
2024/01/02 09:25:11;;;;;;;0.57;0.57;;;;;;;8.29;71.33;97272.19;4977823;28;102937;-71
2024/01/02 09:27:43;;;;;;;0.60;0.60;;;;;;;8.37;71.04;97283.63;4973672;28;103657;-71
2024/01/02 09:30:14;;;;;;;0.50;0.50;;;;;;;8.38;71.04;97277.34;4992376;28;103550;-71
2024/01/02 09:32:43;;;;;;;0.80;0.73;;;;;;;8.49;71.13;97291.88;4994960;28;103344;-71
2024/01/02 09:35:13;;;;;;;1.08;0.95;;;;;;;8.49;71.40;97287.44;4975014;28;102759;-71
2024/01/02 09:37:41;;;;;;;0.65;0.65;;;;;;;8.51;71.10;97277.47;4968431;28;104471;-71
2024/01/02 09:40:18;;;;;;;0.63;0.60;;;;;;;8.50;70.50;97278.47;4974981;28;103058;-70
2024/01/02 09:43:00;;;;;;;2.75;0.90;;;;;;;8.54;70.83;97274.50;4994748;28;102717;-70
2024/01/02 09:45:42;;;;;;;0.70;0.70;;;;;;;8.56;70.78;97272.47;4992525;28;103740;-70
2024/01/02 09:48:36;;;;;;;2.03;0.60;;;;;;;8.62;69.96;97276.19;4993974;28;103885;-73
2024/01/02 09:51:11;;;;;;;0.80;0.80;;;;;;;8.63;70.33;97277.78;4994653;28;103240;-73
2024/01/02 09:54:06;;;;;;;0.70;0.70;;;;;;;8.75;70.32;97263.06;4974568;28;102721;-71
2024/01/02 09:56:46;;;;;;;1.23;0.70;;;;;;;8.73;69.99;97262.44;4991823;28;102786;-70
2024/01/02 09:59:38;;;;;;;1.13;0.90;;;;;;;8.69;70.19;97261.19;4964281;28;103945;-73
2024/01/02 10:02:34;;;;;;;0.98;0.88;;;;;;;8.75;70.75;97268.34;4986811;28;104118;-71
2024/01/02 10:05:15;;;;;;;0.70;0.70;;;;;;;8.82;70.25;97270.22;4983245;28;102669;-71
2024/01/02 10:08:08;;;;;;;0.82;0.65;;;;;;;8.81;70.25;97279.16;4991458;28;102884;-69
2024/01/02 10:10:41;;;;;;;0.50;0.50;;;;;;;8.86;69.86;97266.19;4983892;28;103827;-72
2024/01/02 10:13:22;;;;;;;0.60;0.60;;;;;;;8.86;69.67;97276.75;4978214;28;104254;-71
2024/01/02 10:15:56;;;;;;;0.47;0.47;;;;;;;8.93;69.75;97269.69;4976288;28;102724;-71
2024/01/02 10:18:36;;;;;;;1.20;0.60;;;;;;;8.95;69.79;97265.84;4999456;28;103521;-70
2024/01/02 10:21:15;;;;;;;0.63;0.63;;;;;;;8.99;69.46;97266.28;4975872;28;104150;-70
2024/01/02 10:23:55;;;;;;;0.70;0.70;;;;;;;9.06;69.17;97263.69;4990160;28;103305;-70
2024/01/02 10:26:25;;;;;;;0.93;0.75;;;;;;;9.10;68.65;97247.28;4974670;28;102794;-70
2024/01/02 10:29:02;;;;;;;0.60;0.60;;;;;;;9.08;69.24;97246.63;4994921;28;103764;-70
2024/01/02 10:31:40;;;;;;;0.57;0.57;;;;;;;9.07;69.08;97252.91;4973281;28;104163;-70
2024/01/02 10:34:17;;;;;;;0.73;0.68;;;;;;;9.07;68.95;97241.56;4993732;28;103439;-70
2024/01/02 10:36:50;;;;;;;0.50;0.50;;;;;;;9.06;68.82;97251.28;4995300;28;102635;-70
2024/01/02 10:39:27;;;;;;;0.60;0.60;;;;;;;9.13;69.09;97246.03;4974155;28;103881;-70
2024/01/02 10:42:03;;;;;;;0.60;0.60;;;;;;;9.18;68.80;97248.09;4976975;28;104176;-70
2024/01/02 10:44:42;;;;;;;0.60;0.60;;;;;;;9.20;68.50;97246.09;4995252;28;103319;-70
2024/01/02 10:47:17;;;;;;;0.30;0.30;;;;;;;9.18;68.50;97237.53;4993169;28;104044;-71
2024/01/02 10:49:52;;;;;;;0.60;0.57;;;;;;;9.20;68.59;97240.81;4975936;28;103863;-69
2024/01/02 10:52:32;;;;;;;0.95;0.90;;;;;;;9.23;68.71;97232.50;4972687;28;103467;-70
2024/01/02 10:55:09;;;;;;;1.10;0.57;;;;;;;9.25;68.51;97228.66;4972737;28;104268;-70
2024/01/02 10:57:53;;;;;;;0.50;0.50;;;;;;;9.29;68.56;97223.78;4990386;28;102702;-69
2024/01/02 11:00:23;;;;;;;0.57;0.57;;;;;;;9.38;68.17;97227.91;4976597;28;102669;-69
2024/01/02 11:02:58;;;;;;;0.73;0.73;;;;;;;9.42;68.57;97225.69;4988858;28;103293;-70
2024/01/02 11:05:31;;;;;;;0.70;0.70;;;;;;;9.41;68.60;97224.03;4988822;28;103230;-70
2024/01/02 11:08:07;;;;;;;0.50;0.50;;;;;;;9.35;68.45;97216.91;4999042;28;102879;-72
2024/01/02 11:10:47;;;;;;;0.68;0.68;;;;;;;9.49;68.16;97213.28;4970266;28;103958;-70
2024/01/02 11:13:16;;;;;;;0.77;0.77;;;;;;;9.43;67.95;97216.72;4995594;28;103309;-71
2024/01/02 11:15:53;;;;;;;0.60;0.60;;;;;;;9.45;67.89;97212.88;4993437;28;102995;-72
2024/01/02 11:18:22;;;;;;;1.33;1.00;;;;;;;9.50;68.26;97203.53;4975861;28;102651;-72
2024/01/02 11:20:58;;;;;;;0.70;0.70;;;;;;;9.54;67.78;97210.06;4991753;28;103739;-70
2024/01/02 11:23:30;;;;;;;0.77;0.77;;;;;;;9.66;67.46;97213.75;4991159;28;104001;-72
2024/01/02 11:26:04;;;;;;;0.60;0.60;;;;;;;9.63;67.59;97187.72;4974003;28;103287;-71
2024/01/02 11:28:47;;;;;;;1.65;0.80;;;;;;;9.68;67.29;97184.47;4994536;28;102695;-72
2024/01/02 11:31:16;;;;;;;0.75;0.75;;;;;;;9.68;67.27;97174.72;4976760;28;103894;-73
2024/01/02 11:33:58;;;;;;;0.93;0.70;;;;;;;9.68;66.88;97174.72;4987305;28;103940;-70
2024/01/02 11:36:40;;;;;;;0.65;0.63;;;;;;;9.73;66.60;97164.38;4991737;28;103203;-69
2024/01/02 11:39:13;;;;;;;0.60;0.60;;;;;;;9.66;66.71;97155.59;4968341;28;102933;-69
2024/01/02 11:41:59;;;;;;;0.50;0.50;;;;;;;9.75;66.59;97154.41;4994680;28;104022;-70
2024/01/02 11:44:40;;;;;;;0.80;0.70;;;;;;;9.71;66.56;97152.38;4992400;28;104168;-71
2024/01/02 11:47:17;;;;;;;4.18;1.20;;;;;;;9.77;66.54;97155.03;4990530;28;104117;-72